Aérodrome :
LOGIN :

S'inscrire | Disclaimer

   EN    FR    IT 

 










Légende :    VFR   VFR Marginal   IFR   IFR Intensif   IFR Très Intensif
Visi : 
Plafond : 
>= 8 km
>= 3000ft
5 à 8 km
1000 à 3000 ft
1500m à 5 km
500 à 1000 ft
800 à 1500m
200 à 500 ft
< 800m
< 200 ft
Symboles :   Orages  Brouillard  Fortes neiges  Fortes précipitations  Vent > 20 kt
SIGMETs :   Divers  Orages  Givrage  Turbulence  Onde Orograph.  Cendres Volcan.







- Altitude de l'aérodrome : 1475 ft


LSZC - Buochs Stans

DERNIER METAR :
  • 180650Z VRB01KT 1500 SN NSC M02/M03 Q1022

METARs EXPIRÉS :
  • 180620Z AUTO VRB01KT 2400 -SN VV017 M02/M03 Q1022
  • 180550Z AUTO 24004KT 210V280 9999 -SN BKN/// M01/M04 Q1023
  • 180520Z AUTO VRB02KT 9999 NCD M02/M04 Q1023
  • 180450Z AUTO VRB02KT 9999 BKN060 M02/M05 Q1023
  • 180420Z AUTO VRB03KT 9999 OVC090 M01/M05 Q1024

TAF AMD TAF LSZC
Valide du 18 à 06h jusqu'au 18 à 15h UTC


180637Z 1806/1815 VRB03KT 2500 -SN BKN016
TEMPO 1808/1811 1000 SN VV005
BECMG 1812/1815 4000 NSW
Pas de NOTAMs connus pour ce terrain.
1 SIGMET publié pour la FIR Switzerland (LSAS) :
 
Givrage fort
LSAS SIGMET 1 VALID 180543/180700 LSZH
LSAS SWITZERLAND FIR SEV ICE FCST NW OF LINE N4554 E00636 - N4739 E00803 SFC/FL120 MOV E 10KT NC=



MET'MAP, la Météo Aéronautique d'un coup d'oeil ! - Copyright ORBIFLY Décembre 2007 - Disclaimer

ORBIFLY MET'MAP TEAM :

Programmation & Développement : Alexandra Zaïnal
Conception & Développement : Baudouin d'Aumeries
Co-Programmation & Développement : Marc-Olivier Méhu
Soutien technique & logistique : Manuel Goepfert

Contact : metmap@orbifly.com




SOURCES & CREDITS :

   NOAA